createdAt,value
2022-11-16T00:01:42.705Z,5.00
2022-11-16T00:04:09.624Z,5.00
2022-11-16T00:06:36.337Z,4.80
2022-11-16T00:09:22.216Z,4.60
2022-11-16T00:11:49.967Z,4.50
2022-11-16T00:14:17.418Z,4.30
2022-11-16T00:16:44.167Z,4.20
2022-11-16T00:19:11.465Z,4.30
2022-11-16T00:21:38.175Z,4.60
2022-11-16T00:24:05.393Z,4.50
2022-11-16T00:26:32.129Z,4.80
2022-11-16T00:28:58.905Z,4.70
2022-11-16T00:31:25.738Z,4.70
2022-11-16T00:33:52.781Z,4.70
2022-11-16T00:36:19.471Z,4.80
2022-11-16T00:38:46.721Z,4.90
2022-11-16T00:41:13.697Z,4.80
2022-11-16T00:43:40.401Z,4.80
2022-11-16T00:46:07.319Z,4.90
2022-11-16T00:48:34.426Z,5.00
2022-11-16T00:51:01.599Z,5.00
2022-11-16T00:53:28.347Z,4.90
2022-11-16T00:55:55.055Z,5.00
2022-11-16T00:58:22.022Z,5.00
2022-11-16T01:00:55.594Z,5.30
2022-11-16T01:03:24.413Z,5.20
2022-11-16T01:05:51.144Z,5.10
2022-11-16T01:08:17.853Z,5.10
2022-11-16T01:10:44.579Z,5.00
2022-11-16T01:13:11.555Z,5.40
2022-11-16T01:15:38.305Z,5.40
2022-11-16T01:18:05.100Z,5.50
2022-11-16T01:20:32.401Z,5.20
2022-11-16T01:22:59.162Z,5.40
2022-11-16T01:25:25.898Z,5.50
2022-11-16T01:27:52.718Z,5.50
2022-11-16T01:30:27.305Z,5.50
2022-11-16T01:33:00.695Z,5.40
2022-11-16T01:35:27.787Z,5.50
2022-11-16T01:37:55.346Z,5.60
2022-11-16T01:40:24.227Z,5.30
2022-11-16T01:42:52.063Z,5.20
2022-11-16T01:45:23.232Z,5.40
2022-11-16T01:47:53.230Z,5.50
2022-11-16T01:50:22.616Z,5.60
2022-11-16T01:52:56.795Z,5.60
2022-11-16T01:55:27.076Z,5.60
2022-11-16T01:58:13.593Z,5.60
2022-11-16T02:00:40.394Z,5.60
2022-11-16T02:03:26.107Z,5.40
2022-11-16T02:06:00.763Z,5.40
2022-11-16T02:08:54.943Z,5.30
2022-11-16T02:11:30.752Z,5.40
2022-11-16T02:13:58.033Z,5.50
2022-11-16T02:16:33.889Z,5.60
2022-11-16T02:19:05.403Z,5.50
2022-11-16T02:21:32.137Z,5.60
2022-11-16T02:24:04.844Z,5.70
2022-11-16T02:26:34.481Z,5.80
2022-11-16T02:29:10.400Z,5.90
2022-11-16T02:31:39.187Z,5.70
2022-11-16T02:34:07.855Z,5.70
2022-11-16T02:36:38.867Z,5.70
2022-11-16T02:39:11.272Z,5.80
2022-11-16T02:41:39.540Z,5.60
2022-11-16T02:44:10.091Z,5.60
2022-11-16T02:46:39.124Z,5.70
2022-11-16T02:49:10.363Z,5.80
2022-11-16T02:51:38.318Z,5.70
2022-11-16T02:54:18.257Z,5.70
2022-11-16T02:56:48.853Z,5.70
2022-11-16T02:59:19.196Z,5.70
2022-11-16T03:01:51.299Z,5.60
2022-11-16T03:04:26.151Z,5.60
2022-11-16T03:06:55.078Z,5.80
2022-11-16T03:09:27.342Z,5.70
2022-11-16T03:11:59.686Z,5.70
2022-11-16T03:14:43.830Z,5.60
2022-11-16T03:17:16.016Z,5.60
2022-11-16T03:19:55.055Z,5.80
2022-11-16T03:22:28.724Z,5.70
2022-11-16T03:24:55.658Z,5.70
2022-11-16T03:27:35.224Z,5.80
2022-11-16T03:30:10.700Z,5.70
2022-11-16T03:32:49.085Z,5.90
2022-11-16T03:35:22.153Z,5.80
2022-11-16T03:37:50.548Z,5.70
2022-11-16T03:40:18.447Z,5.80
2022-11-16T03:42:46.343Z,5.90
2022-11-16T03:45:13.588Z,5.80
2022-11-16T03:47:42.242Z,5.80
2022-11-16T03:50:09.589Z,5.70
2022-11-16T03:52:37.252Z,5.90
2022-11-16T03:55:04.698Z,5.80
2022-11-16T03:57:31.519Z,5.70
2022-11-16T03:59:59.816Z,5.70
2022-11-16T04:02:26.468Z,5.80
2022-11-16T04:05:14.928Z,5.80
2022-11-16T04:08:01.680Z,5.60
2022-11-16T04:10:47.204Z,5.50
2022-11-16T04:13:33.509Z,5.60
2022-11-16T04:16:19.252Z,5.60
2022-11-16T04:19:04.968Z,5.60
2022-11-16T04:21:52.455Z,5.70
2022-11-16T04:24:21.811Z,5.80
2022-11-16T04:27:09.263Z,5.60
2022-11-16T04:29:36.504Z,5.70
2022-11-16T04:32:22.473Z,5.70
2022-11-16T04:35:07.929Z,5.60
2022-11-16T04:37:50.219Z,5.60
2022-11-16T04:40:23.319Z,5.50
2022-11-16T04:42:50.732Z,5.50
2022-11-16T04:45:35.914Z,5.60
2022-11-16T04:48:02.843Z,5.60
2022-11-16T04:50:35.089Z,5.70
2022-11-16T04:53:02.689Z,5.60
2022-11-16T04:55:31.014Z,5.70
2022-11-16T04:57:58.451Z,5.90
2022-11-16T05:00:26.339Z,5.70
2022-11-16T05:02:55.703Z,5.70
2022-11-16T05:05:27.513Z,5.70
2022-11-16T05:07:54.236Z,5.90
2022-11-16T05:10:26.555Z,6.10
2022-11-16T05:12:54.618Z,5.80
2022-11-16T05:15:22.742Z,5.70
2022-11-16T05:17:51.085Z,5.80
2022-11-16T05:20:40.471Z,5.80
2022-11-16T05:23:28.170Z,5.50
2022-11-16T05:25:56.949Z,5.50
2022-11-16T05:28:23.732Z,5.50
2022-11-16T05:30:51.186Z,5.60
2022-11-16T05:33:22.152Z,5.70
2022-11-16T05:35:50.811Z,5.70
2022-11-16T05:38:18.721Z,5.90
2022-11-16T05:40:48.926Z,5.90
2022-11-16T05:43:15.706Z,5.80
2022-11-16T05:45:51.460Z,6.00
2022-11-16T05:48:18.778Z,5.90
2022-11-16T05:50:45.562Z,6.00
2022-11-16T05:53:19.435Z,6.00
2022-11-16T05:55:47.064Z,6.10
2022-11-16T05:58:13.794Z,6.10
2022-11-16T06:00:40.630Z,6.20
2022-11-16T06:03:09.642Z,6.20
2022-11-16T06:05:40.427Z,6.20
2022-11-16T06:08:08.614Z,6.20
2022-11-16T06:10:36.849Z,6.20
2022-11-16T06:13:04.127Z,6.20
2022-11-16T06:15:30.882Z,6.20
2022-11-16T06:17:58.133Z,6.20
2022-11-16T06:20:25.312Z,6.20
2022-11-16T06:22:53.487Z,6.40
2022-11-16T06:25:21.361Z,6.30
2022-11-16T06:27:48.091Z,6.20
2022-11-16T06:30:17.323Z,6.30
2022-11-16T06:32:44.836Z,6.30
2022-11-16T06:35:11.757Z,6.30
2022-11-16T06:37:39.528Z,6.30
2022-11-16T06:40:07.737Z,6.40
2022-11-16T06:42:37.311Z,6.30
2022-11-16T06:45:04.363Z,6.40
2022-11-16T06:47:37.100Z,6.50
2022-11-16T06:50:04.802Z,6.50
2022-11-16T06:52:31.712Z,6.50
2022-11-16T06:54:58.755Z,6.40
2022-11-16T06:57:25.693Z,6.50
2022-11-16T06:59:52.421Z,6.50
2022-11-16T07:02:21.364Z,6.60
2022-11-16T07:04:48.750Z,6.70
2022-11-16T07:07:16.365Z,6.60
2022-11-16T07:09:44.545Z,6.50
2022-11-16T07:12:12.278Z,6.50
2022-11-16T07:14:40.887Z,6.50
2022-11-16T07:17:09.881Z,6.50
2022-11-16T07:19:37.102Z,6.50
2022-11-16T07:22:04.842Z,6.50
2022-11-16T07:24:32.291Z,6.60
2022-11-16T07:27:00.049Z,6.70
2022-11-16T07:29:31.445Z,6.60
2022-11-16T07:32:13.470Z,6.60
2022-11-16T07:35:06.236Z,6.70
2022-11-16T07:37:33.136Z,6.80
2022-11-16T07:39:59.811Z,6.90
2022-11-16T07:42:26.667Z,7.00
2022-11-16T07:45:12.135Z,7.00
2022-11-16T07:47:45.769Z,7.40
2022-11-16T07:50:21.621Z,7.30
2022-11-16T07:52:48.430Z,7.30
2022-11-16T07:55:24.321Z,7.30
2022-11-16T07:57:53.633Z,7.30
2022-11-16T08:00:21.400Z,7.30
2022-11-16T08:02:57.124Z,7.30
2022-11-16T08:05:25.242Z,7.40
2022-11-16T08:07:52.097Z,7.50
2022-11-16T08:10:23.337Z,7.50
2022-11-16T08:12:50.178Z,7.70
2022-11-16T08:15:18.956Z,7.70
2022-11-16T08:17:45.818Z,7.70
2022-11-16T08:20:13.353Z,7.70
2022-11-16T08:22:40.891Z,7.80
2022-11-16T08:25:08.815Z,7.80
2022-11-16T08:27:35.590Z,7.80
2022-11-16T08:30:03.250Z,7.80
2022-11-16T08:32:30.341Z,7.80
2022-11-16T08:34:57.056Z,7.80
2022-11-16T08:37:23.807Z,7.80
2022-11-16T08:39:50.820Z,7.80
2022-11-16T08:42:19.388Z,7.90
2022-11-16T08:44:48.496Z,7.90
2022-11-16T08:47:18.103Z,7.90
2022-11-16T08:49:56.200Z,8.00
2022-11-16T08:52:25.245Z,8.00
2022-11-16T08:54:53.576Z,8.10
2022-11-16T08:57:20.791Z,8.00
2022-11-16T08:59:52.160Z,8.10
2022-11-16T09:02:25.314Z,8.10
2022-11-16T09:04:52.993Z,8.10
2022-11-16T09:07:19.871Z,8.10
2022-11-16T09:09:46.805Z,8.10
2022-11-16T09:12:13.508Z,8.10
2022-11-16T09:14:40.146Z,8.20
2022-11-16T09:17:06.911Z,8.20
2022-11-16T09:19:33.922Z,8.20
2022-11-16T09:22:00.604Z,8.30
2022-11-16T09:24:27.411Z,8.40
2022-11-16T09:26:56.810Z,8.40
2022-11-16T09:29:23.547Z,8.50
2022-11-16T09:31:50.195Z,8.60
2022-11-16T09:34:17.112Z,8.70
2022-11-16T09:36:43.856Z,8.70
2022-11-16T09:39:30.766Z,8.80
2022-11-16T09:41:58.276Z,8.90
2022-11-16T09:44:43.756Z,8.90
2022-11-16T09:47:18.824Z,9.00
2022-11-16T09:49:55.701Z,9.00
2022-11-16T09:52:28.524Z,9.00
2022-11-16T09:54:56.789Z,9.10
2022-11-16T09:57:27.121Z,9.20
2022-11-16T09:59:57.392Z,9.10
2022-11-16T10:02:24.041Z,9.20
2022-11-16T10:04:56.721Z,9.10
2022-11-16T10:07:27.948Z,9.10
2022-11-16T10:09:55.554Z,9.00
2022-11-16T10:12:22.248Z,9.10
2022-11-16T10:14:57.511Z,8.90
2022-11-16T10:17:27.133Z,8.90
2022-11-16T10:20:01.619Z,9.10
2022-11-16T10:22:46.988Z,9.00
2022-11-16T10:25:20.450Z,9.00
2022-11-16T10:27:49.847Z,9.00
2022-11-16T10:30:17.587Z,9.00
2022-11-16T10:32:50.752Z,9.00
2022-11-16T10:35:19.933Z,9.00
2022-11-16T10:37:48.769Z,9.00
2022-11-16T10:40:15.600Z,9.10
2022-11-16T10:42:43.004Z,9.00
2022-11-16T10:45:20.553Z,9.00
2022-11-16T10:48:04.086Z,8.90
2022-11-16T10:50:42.305Z,9.00
2022-11-16T10:53:12.382Z,9.00
2022-11-16T10:55:39.128Z,9.00
2022-11-16T10:58:05.868Z,9.00
2022-11-16T11:00:51.712Z,9.00
2022-11-16T11:03:29.896Z,9.00
2022-11-16T11:05:56.850Z,9.00
2022-11-16T11:08:30.709Z,9.00
2022-11-16T11:11:01.677Z,9.10
2022-11-16T11:13:28.503Z,9.10
2022-11-16T11:16:15.761Z,9.20
2022-11-16T11:18:42.570Z,9.30
2022-11-16T11:21:21.321Z,9.30
2022-11-16T11:23:50.778Z,9.40
2022-11-16T11:26:31.724Z,9.50
2022-11-16T11:29:01.924Z,9.50
2022-11-16T11:31:46.244Z,9.50
2022-11-16T11:34:18.875Z,9.60
2022-11-16T11:36:51.552Z,9.70
2022-11-16T11:39:21.058Z,9.80
2022-11-16T11:42:00.514Z,9.90
2022-11-16T11:44:31.887Z,9.90
2022-11-16T11:49:59.212Z,9.90
2022-11-16T11:52:32.137Z,9.90
2022-11-16T11:55:00.164Z,9.90
2022-11-16T11:57:26.967Z,9.90
2022-11-16T11:59:54.451Z,10.00
2022-11-16T12:02:27.521Z,10.00
2022-11-16T12:05:12.790Z,10.10
2022-11-16T12:07:48.625Z,9.90
2022-11-16T12:10:26.955Z,10.00
2022-11-16T12:12:58.084Z,10.10
2022-11-16T12:15:24.764Z,10.20
2022-11-16T12:18:10.537Z,10.30
2022-11-16T12:20:46.400Z,10.20
2022-11-16T12:23:27.359Z,10.20
2022-11-16T12:26:02.523Z,10.20
2022-11-16T12:28:32.247Z,10.20
2022-11-16T12:31:02.063Z,10.20
2022-11-16T12:33:42.019Z,10.10
2022-11-16T12:36:28.659Z,10.10
2022-11-16T12:39:10.881Z,10.10
2022-11-16T12:41:53.843Z,9.90
2022-11-16T12:44:40.731Z,9.90
2022-11-16T12:47:13.727Z,9.80
2022-11-16T12:50:00.137Z,9.70
2022-11-16T12:52:26.800Z,9.80
2022-11-16T12:55:25.918Z,9.80
2022-11-16T12:57:59.886Z,9.90
2022-11-16T13:00:27.974Z,9.90
2022-11-16T13:02:58.835Z,10.00
2022-11-16T13:05:39.937Z,10.00
2022-11-16T13:08:14.657Z,10.00
2022-11-16T13:10:43.357Z,10.00
2022-11-16T13:15:59.414Z,10.10
2022-11-16T13:18:26.550Z,10.10
2022-11-16T13:20:53.261Z,10.30
2022-11-16T13:23:32.283Z,10.40
2022-11-16T13:26:16.167Z,10.60
2022-11-16T13:28:50.644Z,10.70
2022-11-16T13:31:25.385Z,10.80
2022-11-16T13:33:57.682Z,10.90
2022-11-16T13:36:43.736Z,10.90
2022-11-16T13:39:22.340Z,11.00
2022-11-16T13:42:09.982Z,11.00
2022-11-16T13:44:36.805Z,11.20
2022-11-16T13:47:16.982Z,11.30
2022-11-16T13:49:51.139Z,11.20
2022-11-16T13:52:23.701Z,11.20
2022-11-16T13:54:53.657Z,11.00
2022-11-16T13:57:23.730Z,10.90
2022-11-16T13:59:54.872Z,10.80
2022-11-16T14:02:29.687Z,10.70
2022-11-16T14:04:58.143Z,10.50
2022-11-16T14:07:29.040Z,10.50
2022-11-16T14:09:55.768Z,10.40
2022-11-16T14:12:34.575Z,10.30
2022-11-16T14:15:13.332Z,10.30
2022-11-16T14:17:58.917Z,10.20
2022-11-16T14:20:39.744Z,10.10
2022-11-16T14:23:32.846Z,9.90
2022-11-16T14:26:02.884Z,9.90
2022-11-16T14:28:35.785Z,9.80
2022-11-16T14:31:14.149Z,9.80
2022-11-16T14:33:40.910Z,9.80
2022-11-16T14:36:08.989Z,9.90
2022-11-16T14:38:37.411Z,10.00
2022-11-16T14:41:12.155Z,10.00
2022-11-16T14:43:41.303Z,9.90
2022-11-16T14:46:09.437Z,9.90
2022-11-16T14:48:43.136Z,9.90
2022-11-16T14:51:26.975Z,9.80
2022-11-16T14:53:56.325Z,9.90
2022-11-16T14:56:22.996Z,9.90
2022-11-16T14:58:57.008Z,9.90
2022-11-16T15:01:25.957Z,9.80
2022-11-16T15:03:55.654Z,9.70
2022-11-16T15:06:22.912Z,9.70
2022-11-16T15:08:52.044Z,9.60
2022-11-16T15:11:47.107Z,9.60
2022-11-16T15:14:18.650Z,9.70
2022-11-16T15:16:49.974Z,9.50
2022-11-16T15:19:16.674Z,9.40
2022-11-16T15:21:57.025Z,9.50
2022-11-16T15:24:32.057Z,9.50
2022-11-16T15:27:08.262Z,9.60
2022-11-16T15:29:35.465Z,9.60
2022-11-16T15:32:02.136Z,9.50
2022-11-16T15:34:28.811Z,9.40
2022-11-16T15:36:55.586Z,9.40
2022-11-16T15:39:23.142Z,9.40
2022-11-16T15:41:51.393Z,9.30
2022-11-16T15:44:20.073Z,9.10
2022-11-16T15:46:51.646Z,9.10
2022-11-16T15:49:36.122Z,8.80
2022-11-16T15:52:03.141Z,8.80
2022-11-16T15:54:51.229Z,8.70
2022-11-16T15:57:18.538Z,8.50
2022-11-16T15:59:49.331Z,8.50
2022-11-16T16:02:20.329Z,8.40
2022-11-16T16:04:47.031Z,8.30
2022-11-16T16:07:33.716Z,8.10
2022-11-16T16:10:18.754Z,7.90
2022-11-16T16:12:55.588Z,7.80
2022-11-16T16:15:38.667Z,7.70
2022-11-16T16:18:12.171Z,7.70
2022-11-16T16:20:38.894Z,7.90
2022-11-16T16:23:07.493Z,7.90
2022-11-16T16:25:35.900Z,7.70
2022-11-16T16:28:02.825Z,7.50
2022-11-16T16:30:30.481Z,7.70
2022-11-16T16:32:57.258Z,7.70
2022-11-16T16:35:24.776Z,7.20
2022-11-16T16:37:56.144Z,7.20
2022-11-16T16:40:22.854Z,7.10
2022-11-16T16:42:49.549Z,7.00
2022-11-16T16:45:20.210Z,7.00
2022-11-16T16:48:12.359Z,7.00
2022-11-16T16:50:39.196Z,7.00
2022-11-16T16:53:05.860Z,7.10
2022-11-16T16:55:37.257Z,7.00
2022-11-16T16:58:05.041Z,6.70
2022-11-16T17:00:31.889Z,6.60
2022-11-16T17:02:58.536Z,6.30
2022-11-16T17:05:26.269Z,6.20
2022-11-16T17:07:56.296Z,6.30
2022-11-16T17:10:23.224Z,6.40
2022-11-16T17:12:52.871Z,6.30
2022-11-16T17:15:19.769Z,6.20
2022-11-16T17:17:46.507Z,6.20
2022-11-16T17:20:13.528Z,6.10
2022-11-16T17:22:41.803Z,6.20
2022-11-16T17:25:09.375Z,6.30
2022-11-16T17:27:36.190Z,6.10
2022-11-16T17:30:03.348Z,5.90
2022-11-16T17:32:30.218Z,5.80
2022-11-16T17:34:56.929Z,5.70
2022-11-16T17:37:23.602Z,5.70
2022-11-16T17:39:50.243Z,5.60
2022-11-16T17:42:16.909Z,5.70
2022-11-16T17:44:43.557Z,5.50
2022-11-16T17:47:10.406Z,5.50
2022-11-16T17:49:37.155Z,5.40
2022-11-16T17:52:04.903Z,5.30
2022-11-16T17:54:31.833Z,5.40
2022-11-16T17:56:58.532Z,5.20
2022-11-16T17:59:29.395Z,5.40
2022-11-16T18:01:57.842Z,5.40
2022-11-16T18:04:24.612Z,5.30
2022-11-16T18:06:51.376Z,5.30
2022-11-16T18:09:18.826Z,5.20
2022-11-16T18:11:45.655Z,5.30
2022-11-16T18:14:12.322Z,5.30
2022-11-16T18:16:42.315Z,5.30
2022-11-16T18:19:11.875Z,5.30
2022-11-16T18:21:40.191Z,5.30
2022-11-16T18:24:07.293Z,5.30
2022-11-16T18:26:34.287Z,5.10
2022-11-16T18:29:01.187Z,5.20
2022-11-16T18:31:29.667Z,5.20
2022-11-16T18:33:56.650Z,5.10
2022-11-16T18:36:23.370Z,5.00
2022-11-16T18:38:50.151Z,5.10
2022-11-16T18:41:19.685Z,5.10
2022-11-16T18:43:53.740Z,5.00
2022-11-16T18:46:21.536Z,4.90
2022-11-16T18:48:48.272Z,4.70
2022-11-16T18:51:15.595Z,4.60
2022-11-16T18:53:42.726Z,4.70
2022-11-16T18:56:09.715Z,4.60
2022-11-16T18:58:49.912Z,4.60
2022-11-16T19:01:18.565Z,4.50
2022-11-16T19:03:45.421Z,4.60
2022-11-16T19:06:12.404Z,4.60
2022-11-16T19:08:40.188Z,4.60
2022-11-16T19:11:11.571Z,4.70
2022-11-16T19:13:39.320Z,4.70
2022-11-16T19:16:06.846Z,4.60
2022-11-16T19:18:33.581Z,4.60
2022-11-16T19:21:10.547Z,4.70
2022-11-16T19:23:38.246Z,4.70
2022-11-16T19:26:05.063Z,4.60
2022-11-16T19:28:35.678Z,4.60
2022-11-16T19:31:09.869Z,4.40
2022-11-16T19:33:37.081Z,4.50
2022-11-16T19:36:07.713Z,4.50
2022-11-16T19:38:34.626Z,4.40
2022-11-16T19:41:01.380Z,4.40
2022-11-16T19:43:28.214Z,4.60
2022-11-16T19:45:55.023Z,4.50
2022-11-16T19:48:21.788Z,4.70
2022-11-16T19:50:48.486Z,4.50
2022-11-16T19:53:15.149Z,4.40
2022-11-16T19:55:41.907Z,4.50
2022-11-16T19:58:08.542Z,4.40
2022-11-16T20:00:35.330Z,4.40
2022-11-16T20:03:02.124Z,4.20
2022-11-16T20:05:30.006Z,4.10
2022-11-16T20:07:56.720Z,4.10
2022-11-16T20:10:23.414Z,4.20
2022-11-16T20:12:50.116Z,4.20
2022-11-16T20:15:16.861Z,4.20
2022-11-16T20:17:43.518Z,4.10
2022-11-16T20:20:10.392Z,4.10
2022-11-16T20:22:37.100Z,4.00
2022-11-16T20:25:03.844Z,3.80
2022-11-16T20:27:30.528Z,3.80
2022-11-16T20:29:57.186Z,3.80
2022-11-16T20:32:25.053Z,3.70
2022-11-16T20:34:51.888Z,3.60
2022-11-16T20:37:18.551Z,3.70
2022-11-16T20:39:46.996Z,3.60
2022-11-16T20:42:13.733Z,3.50
2022-11-16T20:44:40.524Z,3.50
2022-11-16T20:47:07.302Z,3.40
2022-11-16T20:49:34.003Z,3.30
2022-11-16T20:52:01.169Z,3.20
2022-11-16T20:54:28.503Z,3.20
2022-11-16T20:56:55.322Z,3.20
2022-11-16T20:59:21.989Z,3.10
2022-11-16T21:01:52.320Z,3.10
2022-11-16T21:04:20.550Z,3.00
2022-11-16T21:06:47.263Z,3.20
2022-11-16T21:09:22.553Z,3.50
2022-11-16T21:12:08.243Z,3.60
2022-11-16T21:14:35.039Z,3.30
2022-11-16T21:17:01.919Z,3.00
2022-11-16T21:19:28.597Z,3.00
2022-11-16T21:21:55.254Z,3.00
2022-11-16T21:24:24.728Z,3.00
2022-11-16T21:26:52.233Z,3.00
2022-11-16T21:29:22.194Z,3.00
2022-11-16T21:31:48.952Z,3.00
2022-11-16T21:34:15.691Z,3.10
2022-11-16T21:36:42.428Z,3.20
2022-11-16T21:39:09.354Z,3.20
2022-11-16T21:41:36.059Z,3.20
2022-11-16T21:44:02.805Z,3.20
2022-11-16T21:46:29.698Z,3.20
2022-11-16T21:48:56.949Z,3.20
2022-11-16T21:51:25.197Z,3.50
2022-11-16T21:53:52.201Z,3.20
2022-11-16T21:56:20.385Z,3.00
2022-11-16T21:58:47.063Z,3.00
2022-11-16T22:01:16.052Z,3.00
2022-11-16T22:03:43.128Z,3.10
2022-11-16T22:06:31.430Z,3.10
2022-11-16T22:08:58.444Z,2.80
2022-11-16T22:11:25.226Z,2.60
2022-11-16T22:13:52.040Z,2.70
2022-11-16T22:16:19.755Z,2.80
2022-11-16T22:18:46.613Z,2.60
2022-11-16T22:21:13.299Z,2.60
2022-11-16T22:23:40.747Z,2.60
2022-11-16T22:26:09.252Z,2.60
2022-11-16T22:28:36.493Z,2.60
2022-11-16T22:31:05.068Z,2.60
2022-11-16T22:33:32.326Z,2.50
2022-11-16T22:35:59.233Z,2.50
2022-11-16T22:38:26.310Z,2.40
2022-11-16T22:40:53.665Z,2.30
2022-11-16T22:43:21.018Z,2.30
2022-11-16T22:45:47.745Z,2.30
2022-11-16T22:48:14.780Z,2.80
2022-11-16T22:50:42.089Z,2.90
2022-11-16T22:53:11.791Z,2.60
2022-11-16T22:55:39.140Z,2.40
2022-11-16T22:58:05.856Z,2.40
2022-11-16T23:00:37.526Z,2.30
2022-11-16T23:03:07.563Z,2.20
2022-11-16T23:05:34.328Z,2.20
2022-11-16T23:08:01.005Z,2.30
2022-11-16T23:10:28.944Z,2.40
2022-11-16T23:13:14.102Z,2.60
2022-11-16T23:15:49.966Z,2.50
2022-11-16T23:18:16.704Z,2.60
2022-11-16T23:21:02.294Z,2.50
2022-11-16T23:23:47.643Z,2.50
2022-11-16T23:26:37.862Z,2.40
2022-11-16T23:29:05.349Z,2.50
2022-11-16T23:31:32.063Z,2.40
2022-11-16T23:33:58.770Z,2.40
2022-11-16T23:36:25.481Z,2.40
2022-11-16T23:38:52.150Z,2.50
2022-11-16T23:41:37.702Z,2.60
2022-11-16T23:44:04.473Z,2.70
2022-11-16T23:46:32.072Z,2.70
2022-11-16T23:48:58.761Z,2.50
2022-11-16T23:51:25.738Z,2.70
2022-11-16T23:53:52.996Z,2.50
2022-11-16T23:56:20.495Z,2.50
2022-11-16T23:58:47.460Z,2.40
